Terminal Aerodrome Forecast
Issued by NWS Duluth, MN

Home | Current Version | Previous Version | Text Only | Print | Product List | Glossary On
Versions: 1 2 3 4 5 6 7 8 9 10 11 12 13 14 15 16 17 18 19 20 21 22 23 24 25 26 27
946
FTUS43 KDLH 240532
TAFINL
TAF
KINL 240532Z 2406/2506 28004KT P6SM SCT015 OVC035
      TEMPO 2406/2408 BKN015
     FM240800 VRB03KT 5SM BR OVC015
     FM241500 VRB03KT P6SM OVC018
     FM242100 VRB03KT P6SM BKN025
     FM250200 32003KT P6SM OVC015=

USA.gov is the U.S. government's official web portal to all federal, state and local government web resources and services.